sensor_id;sensor_type;location;lat;lon;timestamp;pressure;altitude;pressure_sealevel;temperature;humidity
76114;BME280;64845;53.086;5.834;2023-05-02T00:01:22;101988.19;;;8.99;77.62
76114;BME280;64845;53.086;5.834;2023-05-02T00:03:47;101991.78;;;8.97;78.18
76114;BME280;64845;53.086;5.834;2023-05-02T00:06:13;101991.78;;;8.95;78.01
76114;BME280;64845;53.086;5.834;2023-05-02T00:08:38;101993.56;;;8.95;77.88
76114;BME280;64845;53.086;5.834;2023-05-02T00:11:03;102001.59;;;8.91;77.43
76114;BME280;64845;53.086;5.834;2023-05-02T00:13:29;101991.84;;;8.92;77.42
76114;BME280;64845;53.086;5.834;2023-05-02T00:15:55;102003.41;;;8.91;77.49
76114;BME280;64845;53.086;5.834;2023-05-02T00:18:20;102003.41;;;8.91;77.45
76114;BME280;64845;53.086;5.834;2023-05-02T00:20:45;102002.50;;;8.90;77.45
76114;BME280;64845;53.086;5.834;2023-05-02T00:23:11;101997.22;;;8.89;77.13
76114;BME280;64845;53.086;5.834;2023-05-02T00:25:43;102005.19;;;8.89;76.90
76114;BME280;64845;53.086;5.834;2023-05-02T00:28:09;102014.06;;;8.89;77.16
76114;BME280;64845;53.086;5.834;2023-05-02T00:30:34;101998.06;;;8.89;76.80
76114;BME280;64845;53.086;5.834;2023-05-02T00:33:00;102004.34;;;8.87;77.01
76114;BME280;64845;53.086;5.834;2023-05-02T00:35:26;102004.34;;;8.87;76.85
76114;BME280;64845;53.086;5.834;2023-05-02T00:37:51;102009.66;;;8.87;76.66
76114;BME280;64845;53.086;5.834;2023-05-02T00:40:17;102007.91;;;8.86;76.36
76114;BME280;64845;53.086;5.834;2023-05-02T00:42:42;102007.91;;;8.86;76.13
76114;BME280;64845;53.086;5.834;2023-05-02T00:45:08;101999.88;;;8.87;75.96
76114;BME280;64845;53.086;5.834;2023-05-02T00:47:33;102007.00;;;8.87;75.87
76114;BME280;64845;53.086;5.834;2023-05-02T00:49:59;102012.28;;;8.88;75.84
76114;BME280;64845;53.086;5.834;2023-05-02T00:52:25;102014.13;;;8.85;75.75
76114;BME280;64845;53.086;5.834;2023-05-02T00:54:51;102016.75;;;8.86;75.66
76114;BME280;64845;53.086;5.834;2023-05-02T00:57:16;102015.88;;;8.86;75.63
76114;BME280;64845;53.086;5.834;2023-05-02T00:59:42;102021.25;;;8.83;75.64
76114;BME280;64845;53.086;5.834;2023-05-02T01:02:31;102031.00;;;8.84;75.64
76114;BME280;64845;53.086;5.834;2023-05-02T01:05:04;102027.47;;;8.82;75.50
76114;BME280;64845;53.086;5.834;2023-05-02T01:07:45;102023.06;;;8.81;75.47
76114;BME280;64845;53.086;5.834;2023-05-02T01:13:16;102048.94;;;8.69;75.81
76114;BME280;64845;53.086;5.834;2023-05-02T01:15:44;102051.69;;;8.61;76.06
76114;BME280;64845;53.086;5.834;2023-05-02T01:18:12;102057.03;;;8.57;76.28
76114;BME280;64845;53.086;5.834;2023-05-02T01:20:41;102049.13;;;8.52;76.12
76114;BME280;64845;53.086;5.834;2023-05-02T01:23:50;102064.25;;;8.45;76.19
76114;BME280;64845;53.086;5.834;2023-05-02T01:28:59;102068.75;;;8.37;76.12
76114;BME280;64845;53.086;5.834;2023-05-02T01:31:28;102070.63;;;8.27;76.10
76114;BME280;64845;53.086;5.834;2023-05-02T01:33:55;102076.00;;;8.23;75.79
76114;BME280;64845;53.086;5.834;2023-05-02T01:36:24;102090.22;;;8.19;76.09
76114;BME280;64845;53.086;5.834;2023-05-02T01:38:51;102087.59;;;8.14;76.06
76114;BME280;64845;53.086;5.834;2023-05-02T01:41:19;102080.53;;;8.10;75.95
76114;BME280;64845;53.086;5.834;2023-05-02T01:43:45;102083.19;;;8.10;76.00
76114;BME280;64845;53.086;5.834;2023-05-02T01:46:13;102092.09;;;8.07;75.92
76114;BME280;64845;53.086;5.834;2023-05-02T01:48:41;102091.25;;;8.04;75.28
76114;BME280;64845;53.086;5.834;2023-05-02T01:51:10;102098.38;;;7.97;75.44
76114;BME280;64845;53.086;5.834;2023-05-02T01:53:37;102109.03;;;7.92;75.64
76114;BME280;64845;53.086;5.834;2023-05-02T01:56:03;102117.06;;;7.91;75.13
76114;BME280;64845;53.086;5.834;2023-05-02T01:58:31;102114.38;;;7.89;75.42
76114;BME280;64845;53.086;5.834;2023-05-02T02:00:58;102128.56;;;7.88;75.16
76114;BME280;64845;53.086;5.834;2023-05-02T02:03:25;102136.56;;;7.85;75.13
76114;BME280;64845;53.086;5.834;2023-05-02T02:05:52;102133.06;;;7.81;75.24
76114;BME280;64845;53.086;5.834;2023-05-02T02:08:19;102139.28;;;7.79;75.24
76114;BME280;64845;53.086;5.834;2023-05-02T02:10:49;102157.03;;;7.77;74.98
76114;BME280;64845;53.086;5.834;2023-05-02T02:13:18;102148.19;;;7.71;74.75
76114;BME280;64845;53.086;5.834;2023-05-02T02:15:52;102166.81;;;7.70;75.16
76114;BME280;64845;53.086;5.834;2023-05-02T02:18:22;102180.13;;;7.64;74.93
76114;BME280;64845;53.086;5.834;2023-05-02T02:20:52;102159.78;;;7.58;74.79
76114;BME280;64845;53.086;5.834;2023-05-02T02:23:20;102175.72;;;7.60;74.73
76114;BME280;64845;53.086;5.834;2023-05-02T02:25:49;102176.63;;;7.54;74.83
76114;BME280;64845;53.086;5.834;2023-05-02T02:28:15;102177.53;;;7.54;74.47
76114;BME280;64845;53.086;5.834;2023-05-02T02:30:40;102182.84;;;7.50;74.63
76114;BME280;64845;53.086;5.834;2023-05-02T02:33:06;102179.31;;;7.48;74.49
76114;BME280;64845;53.086;5.834;2023-05-02T02:35:36;102186.41;;;7.49;74.47
76114;BME280;64845;53.086;5.834;2023-05-02T02:38:21;102193.50;;;7.47;74.14
76114;BME280;64845;53.086;5.834;2023-05-02T02:40:58;102199.69;;;7.46;73.95
76114;BME280;64845;53.086;5.834;2023-05-02T02:43:32;102195.28;;;7.46;74.04
76114;BME280;64845;53.086;5.834;2023-05-02T02:48:56;102205.06;;;7.36;73.47
76114;BME280;64845;53.086;5.834;2023-05-02T02:51:32;102201.53;;;7.33;73.31
76114;BME280;64845;53.086;5.834;2023-05-02T02:54:12;102203.31;;;7.31;73.15
76114;BME280;64845;53.086;5.834;2023-05-02T02:56:44;102227.22;;;7.32;72.77
76114;BME280;64845;53.086;5.834;2023-05-02T02:59:17;102220.13;;;7.31;72.77
76114;BME280;64845;53.086;5.834;2023-05-02T03:01:59;102217.47;;;7.28;72.86
76114;BME280;64845;53.086;5.834;2023-05-02T03:04:31;102229.88;;;7.32;72.55
76114;BME280;64845;53.086;5.834;2023-05-02T03:06:59;102234.31;;;7.29;72.86
76114;BME280;64845;53.086;5.834;2023-05-02T03:09:25;102242.28;;;7.22;72.81
76114;BME280;64845;53.086;5.834;2023-05-02T03:11:54;102238.75;;;7.19;72.65
76114;BME280;64845;53.086;5.834;2023-05-02T03:14:20;102245.84;;;7.18;72.77
76114;BME280;64845;53.086;5.834;2023-05-02T03:16:45;102248.53;;;7.12;72.99
76114;BME280;64845;53.086;5.834;2023-05-02T03:19:11;102261.78;;;7.07;73.07
76114;BME280;64845;53.086;5.834;2023-05-02T03:21:36;102260.91;;;7.07;73.15
76114;BME280;64845;53.086;5.834;2023-05-02T03:24:03;102268.00;;;7.03;73.30
76114;BME280;64845;53.086;5.834;2023-05-02T03:26:28;102275.09;;;7.03;73.16
76114;BME280;64845;53.086;5.834;2023-05-02T03:28:54;102266.22;;;7.04;73.08
76114;BME280;64845;53.086;5.834;2023-05-02T03:31:21;102268.88;;;7.04;72.94
76114;BME280;64845;53.086;5.834;2023-05-02T03:33:47;102279.53;;;7.02;72.83
76114;BME280;64845;53.086;5.834;2023-05-02T03:36:13;102279.53;;;7.02;72.77
76114;BME280;64845;53.086;5.834;2023-05-02T03:38:39;102276.88;;;7.02;72.57
76114;BME280;64845;53.086;5.834;2023-05-02T03:41:04;102287.47;;;7.01;72.54
76114;BME280;64845;53.086;5.834;2023-05-02T03:43:30;102283.03;;;7.00;72.33
76114;BME280;64845;53.086;5.834;2023-05-02T03:45:55;102297.22;;;6.97;72.33
76114;BME280;64845;53.086;5.834;2023-05-02T03:48:21;102306.06;;;7.01;72.31
76114;BME280;64845;53.086;5.834;2023-05-02T03:50:47;102298.09;;;7.01;72.10
76114;BME280;64845;53.086;5.834;2023-05-02T03:53:13;102304.28;;;7.03;72.19
76114;BME280;64845;53.086;5.834;2023-05-02T03:55:40;102311.38;;;7.01;72.08
76114;BME280;64845;53.086;5.834;2023-05-02T03:58:07;102305.19;;;7.02;71.83
76114;BME280;64845;53.086;5.834;2023-05-02T04:00:32;102306.94;;;7.00;71.63
76114;BME280;64845;53.086;5.834;2023-05-02T04:03:00;102307.84;;;6.97;71.67
76114;BME280;64845;53.086;5.834;2023-05-02T04:05:25;102314.94;;;6.98;71.52
76114;BME280;64845;53.086;5.834;2023-05-02T04:07:51;102314.91;;;7.00;71.36
76114;BME280;64845;53.086;5.834;2023-05-02T04:10:16;102317.59;;;6.98;71.48
76114;BME280;64845;53.086;5.834;2023-05-02T04:12:42;102326.44;;;6.95;71.10
76114;BME280;64845;53.086;5.834;2023-05-02T04:15:08;102333.50;;;6.89;70.78
76114;BME280;64845;53.086;5.834;2023-05-02T04:17:34;102337.94;;;6.88;70.66
76114;BME280;64845;53.086;5.834;2023-05-02T04:20:00;102345.03;;;6.85;70.44
76114;BME280;64845;53.086;5.834;2023-05-02T04:22:25;102342.38;;;6.82;70.21
76114;BME280;64845;53.086;5.834;2023-05-02T04:24:52;102347.69;;;6.82;70.35
76114;BME280;64845;53.086;5.834;2023-05-02T04:27:17;102350.34;;;6.82;69.97
76114;BME280;64845;53.086;5.834;2023-05-02T04:29:43;102348.56;;;6.77;70.06
76114;BME280;64845;53.086;5.834;2023-05-02T04:32:08;102351.22;;;6.76;69.77
76114;BME280;64845;53.086;5.834;2023-05-02T04:34:34;102356.50;;;6.73;69.60
76114;BME280;64845;53.086;5.834;2023-05-02T04:37:00;102350.31;;;6.68;69.31
76114;BME280;64845;53.086;5.834;2023-05-02T04:39:25;102353.81;;;6.63;68.85
76114;BME280;64845;53.086;5.834;2023-05-02T04:41:50;102361.78;;;6.63;68.85
76114;BME280;64845;53.086;5.834;2023-05-02T04:44:16;102370.63;;;6.62;68.72
76114;BME280;64845;53.086;5.834;2023-05-02T04:46:41;102371.53;;;6.64;68.55
76114;BME280;64845;53.086;5.834;2023-05-02T04:49:07;102371.50;;;6.61;68.21
76114;BME280;64845;53.086;5.834;2023-05-02T04:51:32;102384.81;;;6.64;68.00
76114;BME280;64845;53.086;5.834;2023-05-02T04:53:58;102375.06;;;6.62;67.84
76114;BME280;64845;53.086;5.834;2023-05-02T04:56:23;102379.47;;;6.61;67.37
76114;BME280;64845;53.086;5.834;2023-05-02T04:58:48;102393.63;;;6.56;66.84
76114;BME280;64845;53.086;5.834;2023-05-02T05:01:14;102387.44;;;6.57;66.29
76114;BME280;64845;53.086;5.834;2023-05-02T05:03:39;102392.75;;;6.60;66.00
76114;BME280;64845;53.086;5.834;2023-05-02T05:06:05;102392.75;;;6.61;66.04
76114;BME280;64845;53.086;5.834;2023-05-02T05:08:30;102397.19;;;6.62;65.57
76114;BME280;64845;53.086;5.834;2023-05-02T05:10:56;102398.94;;;6.60;65.23
76114;BME280;64845;53.086;5.834;2023-05-02T05:13:21;102402.47;;;6.59;64.82
76114;BME280;64845;53.086;5.834;2023-05-02T05:15:47;102410.47;;;6.64;64.88
76114;BME280;64845;53.086;5.834;2023-05-02T05:18:12;102415.75;;;6.62;64.31
76114;BME280;64845;53.086;5.834;2023-05-02T05:20:38;102413.09;;;6.62;64.05
76114;BME280;64845;53.086;5.834;2023-05-02T05:23:03;102421.06;;;6.62;63.80
76114;BME280;64845;53.086;5.834;2023-05-02T05:25:28;102429.03;;;6.67;63.65
76114;BME280;64845;53.086;5.834;2023-05-02T05:27:54;102427.28;;;6.69;63.56
76114;BME280;64845;53.086;5.834;2023-05-02T05:30:20;102425.50;;;6.68;63.22
76114;BME280;64845;53.086;5.834;2023-05-02T05:32:46;102432.59;;;6.71;63.21
76114;BME280;64845;53.086;5.834;2023-05-02T05:35:11;102430.84;;;6.70;62.92
76114;BME280;64845;53.086;5.834;2023-05-02T05:37:37;102439.69;;;6.72;62.62
76114;BME280;64845;53.086;5.834;2023-05-02T05:40:39;102437.91;;;6.71;62.59
76114;BME280;64845;53.086;5.834;2023-05-02T05:43:04;102430.81;;;6.71;62.62
76114;BME280;64845;53.086;5.834;2023-05-02T05:45:30;102439.69;;;6.72;62.43
76114;BME280;64845;53.086;5.834;2023-05-02T05:47:55;102444.13;;;6.73;62.19
76114;BME280;64845;53.086;5.834;2023-05-02T05:50:21;102444.09;;;6.74;62.42
76114;BME280;64845;53.086;5.834;2023-05-02T05:52:47;102450.31;;;6.76;62.53
76114;BME280;64845;53.086;5.834;2023-05-02T05:55:13;102454.75;;;6.77;62.52
76114;BME280;64845;53.086;5.834;2023-05-02T05:57:38;102458.28;;;6.78;62.52
76114;BME280;64845;53.086;5.834;2023-05-02T06:00:04;102457.41;;;6.77;62.02
76114;BME280;64845;53.086;5.834;2023-05-02T06:02:31;102466.25;;;6.79;62.47
76114;BME280;64845;53.086;5.834;2023-05-02T06:04:56;102461.84;;;6.82;62.24
76114;BME280;64845;53.086;5.834;2023-05-02T06:07:22;102466.25;;;6.84;61.92
76114;BME280;64845;53.086;5.834;2023-05-02T06:09:47;102471.59;;;6.87;61.73
76114;BME280;64845;53.086;5.834;2023-05-02T06:12:12;102479.56;;;6.92;61.78
76114;BME280;64845;53.086;5.834;2023-05-02T06:14:40;102478.69;;;6.93;61.50
76114;BME280;64845;53.086;5.834;2023-05-02T06:17:05;102487.56;;;6.93;61.42
76114;BME280;64845;53.086;5.834;2023-05-02T06:19:31;102490.19;;;6.96;61.30
76114;BME280;64845;53.086;5.834;2023-05-02T06:21:56;102497.31;;;7.02;61.51
76114;BME280;64845;53.086;5.834;2023-05-02T06:24:21;102498.19;;;7.04;61.41
76114;BME280;64845;53.086;5.834;2023-05-02T06:26:47;102497.31;;;7.08;61.31
76114;BME280;64845;53.086;5.834;2023-05-02T06:29:12;102499.06;;;7.09;61.24
76114;BME280;64845;53.086;5.834;2023-05-02T06:31:37;102507.06;;;7.11;61.09
76114;BME280;64845;53.086;5.834;2023-05-02T06:34:03;102503.53;;;7.12;60.91
76114;BME280;64845;53.086;5.834;2023-05-02T06:36:28;102504.41;;;7.17;60.87
76114;BME280;64845;53.086;5.834;2023-05-02T06:38:54;102511.50;;;7.21;60.67
76114;BME280;64845;53.086;5.834;2023-05-02T06:41:20;102517.72;;;7.23;60.67
76114;BME280;64845;53.086;5.834;2023-05-02T06:43:45;102534.53;;;7.21;60.00
76114;BME280;64845;53.086;5.834;2023-05-02T06:46:10;102526.53;;;7.16;59.39
76114;BME280;64845;53.086;5.834;2023-05-02T06:48:36;102531.00;;;7.22;59.22
76114;BME280;64845;53.086;5.834;2023-05-02T06:51:01;102539.00;;;7.25;58.78
76114;BME280;64845;53.086;5.834;2023-05-02T06:53:28;102538.09;;;7.31;58.75
76114;BME280;64845;53.086;5.834;2023-05-02T06:55:53;102541.66;;;7.33;58.25
76114;BME280;64845;53.086;5.834;2023-05-02T06:58:19;102547.84;;;7.38;58.42
76114;BME280;64845;53.086;5.834;2023-05-02T07:00:44;102554.06;;;7.43;58.54
76114;BME280;64845;53.086;5.834;2023-05-02T07:03:09;102551.41;;;7.46;58.47
76114;BME280;64845;53.086;5.834;2023-05-02T07:05:35;102554.09;;;7.49;58.65
76114;BME280;64845;53.086;5.834;2023-05-02T07:08:00;102562.94;;;7.47;59.01
76114;BME280;64845;53.086;5.834;2023-05-02T07:10:26;102563.81;;;7.46;59.21
76114;BME280;64845;53.086;5.834;2023-05-02T07:12:51;102565.59;;;7.45;58.91
76114;BME280;64845;53.086;5.834;2023-05-02T07:15:17;102564.69;;;7.48;59.22
76114;BME280;64845;53.086;5.834;2023-05-02T07:17:42;102567.38;;;7.49;59.25
76114;BME280;64845;53.086;5.834;2023-05-02T07:20:09;102569.13;;;7.49;59.29
76114;BME280;64845;53.086;5.834;2023-05-02T07:22:36;102569.16;;;7.53;59.52
76114;BME280;64845;53.086;5.834;2023-05-02T07:25:01;102578.91;;;7.59;59.57
76114;BME280;64845;53.086;5.834;2023-05-02T07:27:27;102587.78;;;7.64;59.70
76114;BME280;64845;53.086;5.834;2023-05-02T07:29:53;102593.97;;;7.62;59.64
76114;BME280;64845;53.086;5.834;2023-05-02T07:32:19;102598.41;;;7.63;59.79
76114;BME280;64845;53.086;5.834;2023-05-02T07:34:46;102597.53;;;7.67;59.92
76114;BME280;64845;53.086;5.834;2023-05-02T07:37:11;102607.28;;;7.63;59.92
76114;BME280;64845;53.086;5.834;2023-05-02T07:39:37;102603.72;;;7.60;59.74
76114;BME280;64845;53.086;5.834;2023-05-02T07:42:02;102607.28;;;7.60;59.79
76114;BME280;64845;53.086;5.834;2023-05-02T07:44:28;102607.28;;;7.60;60.14
76114;BME280;64845;53.086;5.834;2023-05-02T07:46:53;102609.03;;;7.56;60.19
76114;BME280;64845;53.086;5.834;2023-05-02T07:49:19;102606.38;;;7.55;60.14
76114;BME280;64845;53.086;5.834;2023-05-02T07:51:45;102606.38;;;7.55;60.18
76114;BME280;64845;53.086;5.834;2023-05-02T07:54:17;102612.56;;;7.54;60.29
76114;BME280;64845;53.086;5.834;2023-05-02T07:56:43;102612.59;;;7.60;60.57
76114;BME280;64845;53.086;5.834;2023-05-02T07:59:09;102617.91;;;7.66;60.34
76114;BME280;64845;53.086;5.834;2023-05-02T08:01:35;102610.84;;;7.75;60.35
76114;BME280;64845;53.086;5.834;2023-05-02T08:04:01;102620.59;;;7.79;60.44
76114;BME280;64845;53.086;5.834;2023-05-02T08:06:26;102617.91;;;7.77;59.92
76114;BME280;64845;53.086;5.834;2023-05-02T08:08:53;102616.19;;;7.81;60.02
76114;BME280;64845;53.086;5.834;2023-05-02T08:11:18;102617.94;;;7.88;60.19
76114;BME280;64845;53.086;5.834;2023-05-02T08:13:46;102617.09;;;7.94;59.89
76114;BME280;64845;53.086;5.834;2023-05-02T08:16:12;102626.81;;;8.01;60.10
76114;BME280;64845;53.086;5.834;2023-05-02T08:18:37;102629.47;;;7.98;59.16
76114;BME280;64845;53.086;5.834;2023-05-02T08:21:03;102631.25;;;7.97;58.59
76114;BME280;64845;53.086;5.834;2023-05-02T08:23:28;102637.47;;;7.96;57.74
76114;BME280;64845;53.086;5.834;2023-05-02T08:25:53;102638.34;;;8.00;57.33
76114;BME280;64845;53.086;5.834;2023-05-02T08:28:19;102643.66;;;8.00;57.02
76114;BME280;64845;53.086;5.834;2023-05-02T08:30:44;102641.00;;;8.05;56.70
76114;BME280;64845;53.086;5.834;2023-05-02T08:33:10;102651.66;;;8.11;56.72
76114;BME280;64845;53.086;5.834;2023-05-02T08:35:35;102656.09;;;8.07;56.27
76114;BME280;64845;53.086;5.834;2023-05-02T08:38:00;102655.22;;;8.11;56.30
76114;BME280;64845;53.086;5.834;2023-05-02T08:40:26;102655.22;;;8.16;56.88
76114;BME280;64845;53.086;5.834;2023-05-02T08:42:53;102660.53;;;8.24;56.63
76114;BME280;64845;53.086;5.834;2023-05-02T08:45:19;102658.78;;;8.29;56.99
76114;BME280;64845;53.086;5.834;2023-05-02T08:47:45;102663.22;;;8.33;56.69
76114;BME280;64845;53.086;5.834;2023-05-02T08:50:12;102659.63;;;8.37;56.28
76114;BME280;64845;53.086;5.834;2023-05-02T08:52:37;102673.84;;;8.38;55.76
76114;BME280;64845;53.086;5.834;2023-05-02T08:55:05;102674.75;;;8.43;55.44
76114;BME280;64845;53.086;5.834;2023-05-02T08:57:31;102672.06;;;8.46;55.69
76114;BME280;64845;53.086;5.834;2023-05-02T08:59:57;102671.22;;;8.50;55.31
76114;BME280;64845;53.086;5.834;2023-05-02T09:02:46;102674.75;;;8.47;55.35
76114;BME280;64845;53.086;5.834;2023-05-02T09:05:19;102678.28;;;8.42;54.93
76114;BME280;64845;53.086;5.834;2023-05-02T09:07:47;102670.28;;;8.37;54.78
76114;BME280;64845;53.086;5.834;2023-05-02T09:10:13;102680.06;;;8.34;54.57
76114;BME280;64845;53.086;5.834;2023-05-02T09:12:39;102677.41;;;8.37;54.78
76114;BME280;64845;53.086;5.834;2023-05-02T09:15:14;102684.50;;;8.35;54.84
76114;BME280;64845;53.086;5.834;2023-05-02T09:17:45;102688.94;;;8.36;54.99
76114;BME280;64845;53.086;5.834;2023-05-02T09:20:12;102685.38;;;8.34;55.16
76114;BME280;64845;53.086;5.834;2023-05-02T09:22:38;102689.81;;;8.28;55.00
76114;BME280;64845;53.086;5.834;2023-05-02T09:25:06;102693.38;;;8.32;55.03
76114;BME280;64845;53.086;5.834;2023-05-02T09:27:52;102701.34;;;8.38;55.29
76114;BME280;64845;53.086;5.834;2023-05-02T09:30:25;102700.44;;;8.47;55.17
76114;BME280;64845;53.086;5.834;2023-05-02T09:32:51;102701.38;;;8.55;55.29
76114;BME280;64845;53.086;5.834;2023-05-02T09:35:19;102704.94;;;8.68;55.45
76114;BME280;64845;53.086;5.834;2023-05-02T09:37:55;102716.44;;;8.80;54.91
76114;BME280;64845;53.086;5.834;2023-05-02T09:40:22;102713.78;;;8.87;54.66
76114;BME280;64845;53.086;5.834;2023-05-02T09:42:48;102709.34;;;8.99;54.69
76114;BME280;64845;53.086;5.834;2023-05-02T09:45:24;102711.09;;;9.07;54.80
76114;BME280;64845;53.086;5.834;2023-05-02T09:47:50;102716.41;;;9.09;54.00
76114;BME280;64845;53.086;5.834;2023-05-02T09:50:36;102714.63;;;9.06;53.89
76114;BME280;64845;53.086;5.834;2023-05-02T09:53:06;102727.06;;;9.11;53.83
76114;BME280;64845;53.086;5.834;2023-05-02T09:55:33;102720.84;;;9.09;53.87
76114;BME280;64845;53.086;5.834;2023-05-02T09:57:59;102719.94;;;9.13;53.50
76114;BME280;64845;53.086;5.834;2023-05-02T10:00:42;102725.25;;;9.19;53.40
76114;BME280;64845;53.086;5.834;2023-05-02T10:03:08;102729.69;;;9.23;53.08
76114;BME280;64845;53.086;5.834;2023-05-02T10:05:38;102719.91;;;9.28;53.46
76114;BME280;64845;53.086;5.834;2023-05-02T10:08:05;102734.09;;;9.35;53.38
76114;BME280;64845;53.086;5.834;2023-05-02T10:10:32;102735.88;;;9.34;52.88
76114;BME280;64845;53.086;5.834;2023-05-02T10:13:01;102738.53;;;9.36;52.83
76114;BME280;64845;53.086;5.834;2023-05-02T10:15:28;102739.41;;;9.33;52.91
76114;BME280;64845;53.086;5.834;2023-05-02T10:17:57;102739.47;;;9.30;52.71
76114;BME280;64845;53.086;5.834;2023-05-02T10:20:33;102736.78;;;9.27;52.73
76114;BME280;64845;53.086;5.834;2023-05-02T10:22:59;102744.75;;;9.38;52.35
76114;BME280;64845;53.086;5.834;2023-05-02T10:25:26;102736.72;;;9.50;52.53
76114;BME280;64845;53.086;5.834;2023-05-02T10:27:52;102722.38;;;9.72;52.63
76114;BME280;64845;53.086;5.834;2023-05-02T10:30:21;102723.13;;;9.98;52.92
76114;BME280;64845;53.086;5.834;2023-05-02T10:32:46;102723.03;;;10.11;52.31
76114;BME280;64845;53.086;5.834;2023-05-02T10:35:14;102723.91;;;10.18;52.26
76114;BME280;64845;53.086;5.834;2023-05-02T10:37:41;102726.56;;;10.16;51.95
76114;BME280;64845;53.086;5.834;2023-05-02T10:40:10;102737.31;;;10.08;51.67
76114;BME280;64845;53.086;5.834;2023-05-02T10:42:37;102737.34;;;10.02;51.56
76114;BME280;64845;53.086;5.834;2023-05-02T10:45:08;102740.94;;;9.96;51.72
76114;BME280;64845;53.086;5.834;2023-05-02T10:47:35;102747.22;;;9.86;51.79
76114;BME280;64845;53.086;5.834;2023-05-02T10:50:02;102744.59;;;9.77;51.93
76114;BME280;64845;53.086;5.834;2023-05-02T10:52:32;102749.94;;;9.74;51.90
76114;BME280;64845;53.086;5.834;2023-05-02T10:55:18;102752.63;;;9.69;51.63
76114;BME280;64845;53.086;5.834;2023-05-02T11:00:23;102757.97;;;9.66;52.07
76114;BME280;64845;53.086;5.834;2023-05-02T11:02:48;102763.31;;;9.63;52.77
76114;BME280;64845;53.086;5.834;2023-05-02T11:05:15;102768.69;;;9.57;53.11
76114;BME280;64845;53.086;5.834;2023-05-02T11:07:41;102773.19;;;9.44;53.61
76114;BME280;64845;53.086;5.834;2023-05-02T11:10:25;102767.88;;;9.33;53.63
76114;BME280;64845;53.086;5.834;2023-05-02T11:12:56;102767.91;;;9.31;53.75
76114;BME280;64845;53.086;5.834;2023-05-02T11:18:03;102773.16;;;9.42;53.96
76114;BME280;64845;53.086;5.834;2023-05-02T11:20:34;102775.81;;;9.48;54.33
76114;BME280;64845;53.086;5.834;2023-05-02T11:25:56;102765.22;;;9.36;54.36
76114;BME280;64845;53.086;5.834;2023-05-02T11:31:06;102774.97;;;9.34;54.47
76114;BME280;64845;53.086;5.834;2023-05-02T11:33:32;102777.66;;;9.37;54.00
76114;BME280;64845;53.086;5.834;2023-05-02T11:35:57;102779.44;;;9.35;53.92
76114;BME280;64845;53.086;5.834;2023-05-02T11:38:24;102780.31;;;9.32;53.85
76114;BME280;64845;53.086;5.834;2023-05-02T11:40:57;102788.31;;;9.28;53.72
76114;BME280;64845;53.086;5.834;2023-05-02T11:43:24;102785.66;;;9.31;53.91
76114;BME280;64845;53.086;5.834;2023-05-02T11:45:51;102778.50;;;9.51;53.96
76114;BME280;64845;53.086;5.834;2023-05-02T11:48:18;102785.53;;;9.68;54.36
76114;BME280;64845;53.086;5.834;2023-05-02T11:50:47;102785.53;;;9.74;54.06
76114;BME280;64845;53.086;5.834;2023-05-02T11:53:15;102785.50;;;9.79;53.74
76114;BME280;64845;53.086;5.834;2023-05-02T11:55:46;102787.28;;;9.74;54.11
76114;BME280;64845;53.086;5.834;2023-05-02T11:58:14;102800.66;;;9.69;54.16
76114;BME280;64845;53.086;5.834;2023-05-02T12:00:40;102808.66;;;9.63;54.83
76114;BME280;64845;53.086;5.834;2023-05-02T12:03:05;102800.69;;;9.58;54.95
76114;BME280;64845;53.086;5.834;2023-05-02T12:05:31;102803.38;;;9.60;54.78
76114;BME280;64845;53.086;5.834;2023-05-02T12:07:57;102800.66;;;9.67;54.56
76114;BME280;64845;53.086;5.834;2023-05-02T12:10:22;102811.31;;;9.78;54.94
76114;BME280;64845;53.086;5.834;2023-05-02T12:12:48;102811.22;;;9.94;54.57
76114;BME280;64845;53.086;5.834;2023-05-02T12:15:14;102801.38;;;10.02;54.31
76114;BME280;64845;53.086;5.834;2023-05-02T12:17:45;102813.81;;;10.09;54.40
76114;BME280;64845;53.086;5.834;2023-05-02T12:20:12;102818.34;;;9.98;54.56
76114;BME280;64845;53.086;5.834;2023-05-02T12:22:38;102813.06;;;9.84;54.63
76114;BME280;64845;53.086;5.834;2023-05-02T12:25:04;102815.72;;;9.81;54.64
76114;BME280;64845;53.086;5.834;2023-05-02T12:27:30;102818.38;;;9.90;54.35
76114;BME280;64845;53.086;5.834;2023-05-02T12:29:57;102812.97;;;10.03;54.18
76114;BME280;64845;53.086;5.834;2023-05-02T12:32:31;102808.44;;;10.14;53.81
76114;BME280;64845;53.086;5.834;2023-05-02T12:34:58;102822.69;;;10.18;53.73
76114;BME280;64845;53.086;5.834;2023-05-02T12:37:27;102826.28;;;10.09;53.16
76114;BME280;64845;53.086;5.834;2023-05-02T12:39:53;102836.13;;;9.96;53.70
76114;BME280;64845;53.086;5.834;2023-05-02T12:42:21;102837.94;;;9.88;54.06
76114;BME280;64845;53.086;5.834;2023-05-02T12:44:48;102849.53;;;9.82;54.62
76114;BME280;64845;53.086;5.834;2023-05-02T12:47:15;102849.53;;;9.73;54.32
76114;BME280;64845;53.086;5.834;2023-05-02T12:50:07;102850.44;;;9.70;54.48
76114;BME280;64845;53.086;5.834;2023-05-02T12:52:59;102856.69;;;9.67;54.84
76114;BME280;64845;53.086;5.834;2023-05-02T12:55:25;102854.00;;;9.63;54.31
76114;BME280;64845;53.086;5.834;2023-05-02T12:58:05;102860.25;;;9.60;54.48
76114;BME280;64845;53.086;5.834;2023-05-02T13:00:32;102866.50;;;9.58;54.67
76114;BME280;64845;53.086;5.834;2023-05-02T13:02:58;102857.59;;;9.60;54.43
76114;BME280;64845;53.086;5.834;2023-05-02T13:05:23;102868.22;;;9.76;54.77
76114;BME280;64845;53.086;5.834;2023-05-02T13:07:49;102861.94;;;9.94;54.57
76114;BME280;64845;53.086;5.834;2023-05-02T13:10:15;102860.94;;;10.15;54.32
76114;BME280;64845;53.086;5.834;2023-05-02T13:12:42;102862.69;;;10.21;53.81
76114;BME280;64845;53.086;5.834;2023-05-02T13:15:08;102865.34;;;10.27;53.38
76114;BME280;64845;53.086;5.834;2023-05-02T13:17:34;102868.00;;;10.27;52.94
76114;BME280;64845;53.086;5.834;2023-05-02T13:19:59;102852.84;;;10.43;52.91
76114;BME280;64845;53.086;5.834;2023-05-02T13:22:26;102851.94;;;10.42;51.98